createdAt,value
2022-09-26T00:00:19.655Z,7.20
2022-09-26T00:02:21.437Z,6.94
2022-09-26T00:04:31.809Z,7.07
2022-09-26T00:06:34.789Z,6.97
2022-09-26T00:08:37.697Z,6.86
2022-09-26T00:10:39.435Z,6.93
2022-09-26T00:12:41.430Z,6.90
2022-09-26T00:14:43.114Z,6.83
2022-09-26T00:16:45.509Z,6.78
2022-09-26T00:18:52.206Z,6.72
2022-09-26T00:20:54.320Z,6.83
2022-09-26T00:22:56.025Z,6.83
2022-09-26T00:24:58.030Z,6.70
2022-09-26T00:26:59.723Z,6.67
2022-09-26T00:29:03.575Z,6.71
2022-09-26T00:31:07.854Z,6.73
2022-09-26T00:33:09.612Z,6.67
2022-09-26T00:35:11.339Z,6.63
2022-09-26T00:37:13.176Z,6.65
2022-09-26T00:39:16.170Z,6.50
2022-09-26T00:41:18.129Z,6.48
2022-09-26T00:43:35.241Z,6.49
2022-09-26T00:45:37.037Z,6.38
2022-09-26T00:47:50.580Z,6.42
2022-09-26T00:49:58.121Z,6.31
2022-09-26T00:52:15.739Z,6.28
2022-09-26T00:54:19.225Z,6.24
2022-09-26T00:56:28.324Z,6.26
2022-09-26T00:58:34.820Z,6.31
2022-09-26T01:00:42.025Z,6.29
2022-09-26T01:02:47.111Z,6.28
2022-09-26T01:04:49.178Z,6.34
2022-09-26T01:06:50.882Z,6.32
2022-09-26T01:09:12.630Z,6.25
2022-09-26T01:11:16.987Z,6.23
2022-09-26T01:13:20.009Z,6.06
2022-09-26T01:15:22.190Z,6.28
2022-09-26T01:17:25.213Z,6.24
2022-09-26T01:19:41.839Z,6.15
2022-09-26T01:22:27.692Z,6.08
2022-09-26T01:25:06.806Z,6.04
2022-09-26T01:27:41.784Z,6.09
2022-09-26T01:30:14.662Z,5.97
2022-09-26T01:32:44.744Z,6.08
2022-09-26T01:35:06.644Z,6.00
2022-09-26T01:37:31.350Z,6.06
2022-09-26T01:39:48.582Z,6.07
2022-09-26T01:42:15.662Z,6.11
2022-09-26T01:44:35.762Z,6.11
2022-09-26T01:46:51.342Z,6.05
2022-09-26T01:49:02.578Z,5.99
2022-09-26T01:51:27.770Z,6.05
2022-09-26T01:54:19.281Z,6.08
2022-09-26T01:56:24.560Z,6.00
2022-09-26T01:58:48.171Z,5.92
2022-09-26T02:00:51.808Z,5.91
2022-09-26T02:02:55.328Z,5.90
2022-09-26T02:05:03.905Z,5.91
2022-09-26T02:07:29.256Z,5.91
2022-09-26T02:09:43.208Z,5.97
2022-09-26T02:11:49.355Z,6.00
2022-09-26T02:13:51.069Z,5.94
2022-09-26T02:16:00.534Z,5.94
2022-09-26T02:18:21.519Z,5.99
2022-09-26T02:20:29.648Z,6.02
2022-09-26T02:22:34.324Z,6.10
2022-09-26T02:24:36.141Z,6.10
2022-09-26T02:26:38.272Z,6.01
2022-09-26T02:28:40.305Z,5.99
2022-09-26T02:30:44.825Z,6.08
2022-09-26T02:32:46.756Z,6.08
2022-09-26T02:34:49.186Z,6.11
2022-09-26T02:36:52.081Z,6.05
2022-09-26T02:38:53.837Z,5.99
2022-09-26T02:41:10.936Z,6.11
2022-09-26T02:43:54.186Z,6.16
2022-09-26T02:46:16.394Z,6.15
2022-09-26T02:48:42.363Z,6.09
2022-09-26T02:51:15.846Z,6.09
2022-09-26T02:53:53.185Z,5.93
2022-09-26T02:56:26.634Z,5.97
2022-09-26T02:58:37.573Z,6.02
2022-09-26T03:00:58.060Z,5.97
2022-09-26T03:03:17.534Z,5.93
2022-09-26T03:05:29.761Z,5.87
2022-09-26T03:07:38.255Z,5.88
2022-09-26T03:09:42.151Z,5.81
2022-09-26T03:11:45.104Z,5.79
2022-09-26T03:13:50.695Z,5.81
2022-09-26T03:15:56.513Z,5.79
2022-09-26T03:18:00.149Z,5.80
2022-09-26T03:20:17.622Z,5.90
2022-09-26T03:22:19.615Z,5.85
2022-09-26T03:24:23.900Z,5.82
2022-09-26T03:26:28.047Z,5.81
2022-09-26T03:28:34.010Z,5.87
2022-09-26T03:30:38.606Z,5.84
2022-09-26T03:32:40.467Z,5.88
2022-09-26T03:34:42.338Z,5.84
2022-09-26T03:36:44.072Z,5.87
2022-09-26T03:38:45.961Z,5.86
2022-09-26T03:40:48.244Z,5.88
2022-09-26T03:42:49.972Z,5.68
2022-09-26T03:44:51.940Z,5.78
2022-09-26T03:46:54.026Z,5.80
2022-09-26T03:48:55.717Z,5.80
2022-09-26T03:51:12.425Z,5.79
2022-09-26T03:53:14.401Z,5.77
2022-09-26T03:55:16.194Z,5.82
2022-09-26T03:57:18.232Z,5.84
2022-09-26T03:59:20.041Z,5.80
2022-09-26T04:01:22.827Z,5.74
2022-09-26T04:03:30.046Z,5.82
2022-09-26T04:05:31.817Z,5.80
2022-09-26T04:07:33.508Z,5.88
2022-09-26T04:09:35.615Z,5.94
2022-09-26T04:11:37.833Z,6.05
2022-09-26T04:13:51.285Z,6.02
2022-09-26T04:15:58.841Z,6.05
2022-09-26T04:18:00.700Z,6.12
2022-09-26T04:20:02.738Z,6.10
2022-09-26T04:22:04.998Z,6.13
2022-09-26T04:24:08.446Z,5.95
2022-09-26T04:26:20.206Z,6.12
2022-09-26T04:28:24.257Z,6.18
2022-09-26T04:30:26.049Z,6.23
2022-09-26T04:32:27.756Z,6.29
2022-09-26T04:34:29.527Z,6.31
2022-09-26T04:36:32.060Z,6.42
2022-09-26T04:38:33.846Z,6.45
2022-09-26T04:40:42.722Z,6.48
2022-09-26T04:42:45.189Z,6.36
2022-09-26T04:44:46.912Z,6.29
2022-09-26T04:46:48.663Z,6.42
2022-09-26T04:48:51.901Z,6.58
2022-09-26T04:50:53.670Z,6.69
2022-09-26T04:52:55.369Z,6.67
2022-09-26T04:54:57.371Z,6.80
2022-09-26T04:57:00.359Z,6.85
2022-09-26T04:59:02.071Z,6.99
2022-09-26T05:01:06.608Z,7.03
2022-09-26T05:03:08.354Z,7.13
2022-09-26T05:05:10.079Z,7.09
2022-09-26T05:07:11.913Z,7.18
2022-09-26T05:09:13.759Z,7.21
2022-09-26T05:11:17.211Z,7.23
2022-09-26T05:13:19.347Z,7.35
2022-09-26T05:15:21.291Z,7.16
2022-09-26T05:17:23.071Z,7.31
2022-09-26T05:19:24.851Z,7.36
2022-09-26T05:21:26.716Z,7.28
2022-09-26T05:23:28.497Z,7.15
2022-09-26T05:25:36.682Z,7.00
2022-09-26T05:27:38.472Z,6.83
2022-09-26T05:29:40.145Z,6.95
2022-09-26T05:31:42.183Z,7.00
2022-09-26T05:33:43.997Z,7.16
2022-09-26T05:35:52.608Z,6.91
2022-09-26T05:38:04.751Z,7.17
2022-09-26T05:40:06.719Z,7.32
2022-09-26T05:42:08.513Z,7.32
2022-09-26T05:44:10.472Z,7.27
2022-09-26T05:46:12.632Z,7.35
2022-09-26T05:48:14.363Z,7.50
2022-09-26T05:50:16.269Z,7.44
2022-09-26T05:52:18.215Z,7.47
2022-09-26T05:54:19.996Z,7.38
2022-09-26T05:56:21.857Z,7.49
2022-09-26T05:58:23.566Z,7.46
2022-09-26T06:00:28.374Z,7.67
2022-09-26T06:02:30.320Z,7.78
2022-09-26T06:04:32.557Z,7.96
2022-09-26T06:06:34.294Z,8.08
2022-09-26T06:08:37.559Z,8.12
2022-09-26T06:10:39.473Z,8.13
2022-09-26T06:12:41.150Z,8.09
2022-09-26T06:14:42.964Z,8.13
2022-09-26T06:16:44.755Z,8.26
2022-09-26T06:18:48.453Z,8.51
2022-09-26T06:20:50.156Z,8.58
2022-09-26T06:22:52.097Z,8.56
2022-09-26T06:24:53.859Z,8.57
2022-09-26T06:26:55.618Z,8.70
2022-09-26T06:28:59.077Z,8.75
2022-09-26T06:31:01.263Z,8.96
2022-09-26T06:33:03.225Z,9.02
2022-09-26T06:35:06.537Z,8.88
2022-09-26T06:37:08.248Z,8.88
2022-09-26T06:39:10.153Z,9.00
2022-09-26T06:41:11.927Z,9.23
2022-09-26T06:43:13.825Z,9.23
2022-09-26T06:45:15.735Z,9.15
2022-09-26T06:47:18.048Z,9.15
2022-09-26T06:49:19.908Z,9.57
2022-09-26T06:51:21.693Z,9.52
2022-09-26T06:53:23.700Z,9.58
2022-09-26T06:55:25.408Z,9.54
2022-09-26T06:57:27.230Z,9.42
2022-09-26T06:59:28.986Z,9.04
2022-09-26T07:01:30.753Z,8.82
2022-09-26T07:03:32.822Z,8.99
2022-09-26T07:05:34.603Z,8.93
2022-09-26T07:07:42.674Z,9.15
2022-09-26T07:09:44.535Z,9.42
2022-09-26T07:12:14.045Z,9.66
2022-09-26T07:14:11.282Z,9.82
2022-09-26T07:16:13.487Z,9.95
2022-09-26T07:18:15.427Z,9.85
2022-09-26T07:20:19.812Z,10.02
2022-09-26T07:22:21.677Z,10.04
2022-09-26T07:24:23.451Z,9.97
2022-09-26T07:26:25.167Z,9.69
2022-09-26T07:28:27.163Z,9.87
2022-09-26T07:30:29.012Z,10.02
2022-09-26T07:32:31.058Z,10.45
2022-09-26T07:34:32.859Z,11.03
2022-09-26T07:36:34.727Z,11.10
2022-09-26T07:38:36.778Z,11.37
2022-09-26T07:40:38.757Z,11.44
2022-09-26T07:42:40.533Z,12.00
2022-09-26T07:47:04.506Z,12.03
2022-09-26T07:49:06.292Z,11.16
2022-09-26T07:51:09.353Z,11.26
2022-09-26T07:53:11.278Z,11.31
2022-09-26T07:55:16.294Z,11.48
2022-09-26T07:57:17.978Z,12.17
2022-09-26T07:59:19.930Z,12.74
2022-09-26T08:01:21.885Z,12.72
2022-09-26T08:03:24.140Z,12.52
2022-09-26T08:05:26.135Z,12.76
2022-09-26T08:07:27.980Z,12.81
2022-09-26T08:09:29.706Z,13.46
2022-09-26T08:11:31.582Z,13.30
2022-09-26T08:13:33.547Z,13.51
2022-09-26T08:15:35.282Z,13.68
2022-09-26T08:17:37.125Z,13.20
2022-09-26T08:19:39.070Z,13.23
2022-09-26T08:21:40.759Z,13.44
2022-09-26T08:23:42.540Z,13.57
2022-09-26T08:25:44.763Z,13.82
2022-09-26T08:27:46.450Z,13.83
2022-09-26T08:29:48.951Z,13.96
2022-09-26T08:31:50.771Z,14.38
2022-09-26T08:33:52.550Z,14.76
2022-09-26T08:35:54.531Z,14.69
2022-09-26T08:38:01.049Z,14.62
2022-09-26T08:40:02.879Z,14.92
2022-09-26T08:42:10.738Z,15.07
2022-09-26T08:44:56.755Z,14.79
2022-09-26T08:47:03.290Z,15.33
2022-09-26T08:49:26.401Z,15.39
2022-09-26T08:51:44.444Z,15.53
2022-09-26T08:53:56.034Z,15.77
2022-09-26T08:56:00.751Z,16.14
2022-09-26T08:58:10.820Z,16.32
2022-09-26T09:00:22.531Z,16.30
2022-09-26T09:02:40.446Z,16.47
2022-09-26T09:04:58.011Z,16.79
2022-09-26T09:07:07.264Z,16.72
2022-09-26T09:09:14.817Z,16.92
2022-09-26T09:11:37.467Z,17.32
2022-09-26T09:13:58.079Z,17.35
2022-09-26T09:16:40.686Z,17.49
2022-09-26T09:19:00.035Z,17.79
2022-09-26T09:21:01.670Z,17.90
2022-09-26T09:23:27.917Z,17.70
2022-09-26T09:25:42.532Z,17.87
2022-09-26T09:27:53.831Z,17.91
2022-09-26T09:30:01.352Z,18.16
2022-09-26T09:32:04.928Z,18.10
2022-09-26T09:34:10.181Z,18.19
2022-09-26T09:36:25.666Z,18.49
2022-09-26T09:38:30.538Z,18.86
2022-09-26T09:40:41.377Z,18.92
2022-09-26T09:43:06.126Z,18.51
2022-09-26T09:45:33.423Z,18.80
2022-09-26T09:47:39.135Z,18.49
2022-09-26T09:49:42.699Z,18.59
2022-09-26T09:52:02.761Z,18.76
2022-09-26T09:54:10.273Z,18.58
2022-09-26T09:56:12.091Z,18.84
2022-09-26T09:58:34.586Z,18.84
2022-09-26T10:00:42.218Z,18.70
2022-09-26T10:02:46.945Z,18.91
2022-09-26T10:05:00.334Z,18.81
2022-09-26T10:07:02.417Z,18.85
2022-09-26T10:09:40.370Z,18.97
2022-09-26T10:11:42.916Z,19.23
2022-09-26T10:13:45.431Z,19.12
2022-09-26T10:16:00.025Z,19.15
2022-09-26T10:18:24.046Z,19.38
2022-09-26T10:20:39.632Z,19.24
2022-09-26T10:22:43.666Z,19.21
2022-09-26T10:24:47.434Z,19.32
2022-09-26T10:26:49.147Z,19.19
2022-09-26T10:28:54.575Z,19.26
2022-09-26T10:31:05.531Z,19.04
2022-09-26T10:33:24.684Z,19.13
2022-09-26T10:35:43.157Z,19.05
2022-09-26T10:38:07.114Z,19.32
2022-09-26T10:40:27.948Z,19.42
2022-09-26T10:42:32.417Z,19.25
2022-09-26T10:44:35.454Z,19.20
2022-09-26T10:46:37.385Z,19.24
2022-09-26T10:48:51.199Z,19.45
2022-09-26T10:50:55.859Z,19.38
2022-09-26T10:53:02.997Z,19.17
2022-09-26T10:55:16.713Z,19.34
2022-09-26T10:57:23.520Z,19.58
2022-09-26T10:59:29.520Z,19.73
2022-09-26T11:01:32.271Z,19.64
2022-09-26T11:03:41.039Z,19.61
2022-09-26T11:05:45.018Z,19.62
2022-09-26T11:07:48.372Z,19.50
2022-09-26T11:09:50.932Z,19.50
2022-09-26T11:11:53.473Z,19.80
2022-09-26T11:14:03.617Z,19.70
2022-09-26T11:16:10.053Z,19.65
2022-09-26T11:18:23.121Z,19.28
2022-09-26T11:20:44.230Z,19.53
2022-09-26T11:22:54.577Z,19.66
2022-09-26T11:25:05.234Z,19.79
2022-09-26T11:27:21.433Z,19.64
2022-09-26T11:29:37.074Z,19.78
2022-09-26T11:31:41.552Z,20.17
2022-09-26T11:33:43.280Z,20.08
2022-09-26T11:36:09.200Z,19.98
2022-09-26T11:38:42.818Z,20.04
2022-09-26T11:40:59.532Z,20.11
2022-09-26T11:43:29.300Z,20.07
2022-09-26T11:46:02.937Z,20.29
2022-09-26T11:48:26.611Z,20.10
2022-09-26T11:50:40.550Z,20.18
2022-09-26T11:53:04.767Z,19.79
2022-09-26T11:55:23.758Z,19.93
2022-09-26T11:57:53.096Z,19.89
2022-09-26T12:00:08.937Z,19.76
2022-09-26T12:02:30.816Z,19.60
2022-09-26T12:04:59.925Z,19.62
2022-09-26T12:07:22.856Z,19.37
2022-09-26T12:09:58.006Z,19.14
2022-09-26T12:12:27.135Z,19.02
2022-09-26T12:15:10.591Z,19.09
2022-09-26T12:17:30.576Z,19.07
2022-09-26T12:19:38.846Z,18.92
2022-09-26T12:22:11.604Z,19.27
2022-09-26T12:24:27.618Z,19.50
2022-09-26T12:27:40.070Z,19.87
2022-09-26T12:30:04.491Z,19.93
2022-09-26T12:32:33.702Z,20.00
2022-09-26T12:35:05.974Z,19.87
2022-09-26T12:37:46.096Z,19.61
2022-09-26T12:40:01.321Z,19.39
2022-09-26T12:42:14.928Z,19.22
2022-09-26T12:44:41.773Z,19.32
2022-09-26T12:47:07.036Z,19.41
2022-09-26T12:49:40.095Z,19.57
2022-09-26T12:51:51.548Z,19.51
2022-09-26T12:54:17.636Z,19.77
2022-09-26T12:56:36.271Z,19.73
2022-09-26T12:58:43.966Z,19.58
2022-09-26T13:01:01.168Z,19.21
2022-09-26T13:03:24.376Z,19.08
2022-09-26T13:05:47.532Z,19.17
2022-09-26T13:08:18.525Z,19.37
2022-09-26T13:10:26.367Z,19.63
2022-09-26T13:13:01.656Z,19.88
2022-09-26T13:15:19.308Z,19.94
2022-09-26T13:17:23.901Z,19.87
2022-09-26T13:19:54.604Z,19.86
2022-09-26T13:22:01.072Z,19.84
2022-09-26T13:24:11.606Z,19.97
2022-09-26T13:26:29.597Z,20.11
2022-09-26T13:28:55.471Z,20.08
2022-09-26T13:31:35.822Z,20.11
2022-09-26T13:34:03.568Z,19.91
2022-09-26T13:36:09.056Z,19.66
2022-09-26T13:38:43.157Z,19.38
2022-09-26T13:40:57.226Z,19.02
2022-09-26T13:43:14.154Z,19.23
2022-09-26T13:45:27.877Z,19.07
2022-09-26T13:47:45.610Z,19.05
2022-09-26T13:50:13.817Z,19.05
2022-09-26T13:52:33.993Z,19.10
2022-09-26T13:54:46.456Z,18.97
2022-09-26T13:56:52.121Z,19.03
2022-09-26T13:59:31.277Z,18.84
2022-09-26T14:01:32.967Z,18.68
2022-09-26T14:03:39.287Z,18.70
2022-09-26T14:05:44.037Z,18.72
2022-09-26T14:07:53.338Z,18.91
2022-09-26T14:10:01.095Z,18.86
2022-09-26T14:12:22.057Z,18.71
2022-09-26T14:14:26.263Z,18.67
2022-09-26T14:16:27.902Z,18.77
2022-09-26T14:19:07.065Z,18.72
2022-09-26T14:21:21.299Z,18.71
2022-09-26T14:23:43.072Z,18.71
2022-09-26T14:25:44.868Z,18.86
2022-09-26T14:27:46.833Z,18.92
2022-09-26T14:30:10.306Z,18.69
2022-09-26T14:32:43.690Z,18.71
2022-09-26T14:34:53.946Z,18.73
2022-09-26T14:37:01.687Z,18.82
2022-09-26T14:39:05.273Z,18.63
2022-09-26T14:41:16.817Z,18.75
2022-09-26T14:43:19.880Z,18.63
2022-09-26T14:45:25.979Z,18.65
2022-09-26T14:47:39.848Z,18.62
2022-09-26T14:49:42.074Z,18.68
2022-09-26T14:51:49.249Z,18.71
2022-09-26T14:53:53.914Z,18.62
2022-09-26T14:56:06.154Z,18.71
2022-09-26T14:58:49.546Z,18.58
2022-09-26T15:00:54.651Z,18.49
2022-09-26T15:03:00.987Z,18.22
2022-09-26T15:05:12.206Z,18.15
2022-09-26T15:07:25.437Z,18.16
2022-09-26T15:09:40.689Z,18.07
2022-09-26T15:11:47.889Z,18.26
2022-09-26T15:13:52.449Z,18.29
2022-09-26T15:16:19.224Z,18.23
2022-09-26T15:18:27.057Z,18.23
2022-09-26T15:20:31.197Z,18.18
2022-09-26T15:22:35.454Z,18.21
2022-09-26T15:24:37.285Z,18.28
2022-09-26T15:26:39.081Z,18.40
2022-09-26T15:28:40.862Z,18.47
2022-09-26T15:30:42.806Z,18.49
2022-09-26T15:32:47.214Z,18.45
2022-09-26T15:34:49.032Z,18.48
2022-09-26T15:36:56.703Z,18.39
2022-09-26T15:38:58.807Z,18.32
2022-09-26T15:41:02.161Z,18.18
2022-09-26T15:43:10.204Z,18.14
2022-09-26T15:45:22.625Z,18.10
2022-09-26T15:47:41.481Z,18.04
2022-09-26T15:49:43.233Z,17.97
2022-09-26T15:51:45.426Z,18.04
2022-09-26T15:53:55.863Z,18.01
2022-09-26T15:55:57.534Z,17.95
2022-09-26T15:58:02.290Z,17.92
2022-09-26T16:00:04.324Z,17.87
2022-09-26T16:02:31.075Z,17.77
2022-09-26T16:04:33.329Z,17.64
2022-09-26T16:06:38.086Z,17.45
2022-09-26T16:08:42.660Z,17.21
2022-09-26T16:10:54.129Z,17.05
2022-09-26T16:12:58.216Z,16.84
2022-09-26T16:15:18.114Z,16.80
2022-09-26T16:17:24.993Z,16.94
2022-09-26T16:19:35.241Z,16.95
2022-09-26T16:21:36.947Z,16.96
2022-09-26T16:23:49.575Z,16.97
2022-09-26T16:25:53.526Z,16.97
2022-09-26T16:27:59.643Z,16.94
2022-09-26T16:30:05.262Z,16.92
2022-09-26T16:32:19.640Z,16.88
2022-09-26T16:34:24.486Z,16.80
2022-09-26T16:36:27.925Z,16.69
2022-09-26T16:38:34.146Z,16.62
2022-09-26T16:40:36.552Z,16.43
2022-09-26T16:42:38.432Z,16.26
2022-09-26T16:44:42.191Z,16.13
2022-09-26T16:46:50.302Z,16.08
2022-09-26T16:48:52.070Z,16.05
2022-09-26T16:51:12.049Z,16.06
2022-09-26T16:53:13.990Z,16.03
2022-09-26T16:55:15.770Z,16.05
2022-09-26T16:57:32.502Z,16.12
2022-09-26T17:04:30.156Z,16.18
2022-09-26T17:06:31.849Z,16.10
2022-09-26T17:08:33.676Z,16.02
2022-09-26T17:10:35.815Z,15.91
2022-09-26T17:12:37.997Z,15.82
2022-09-26T17:14:41.737Z,15.54
2022-09-26T17:19:09.463Z,14.92
2022-09-26T17:21:11.157Z,14.74
2022-09-26T17:23:38.141Z,14.49
2022-09-26T17:25:35.467Z,14.36
2022-09-26T17:27:37.193Z,14.24
2022-09-26T17:29:45.154Z,13.99
2022-09-26T17:31:47.390Z,13.86
2022-09-26T17:33:51.645Z,13.80
2022-09-26T17:35:53.412Z,13.62
2022-09-26T17:37:56.140Z,13.59
2022-09-26T17:39:57.880Z,13.56
2022-09-26T17:41:59.644Z,13.65
2022-09-26T17:44:01.587Z,13.55
2022-09-26T17:46:03.407Z,13.44
2022-09-26T17:48:12.429Z,13.40
2022-09-26T17:50:40.551Z,13.43
2022-09-26T17:52:42.242Z,13.30
2022-09-26T17:54:46.463Z,13.34
2022-09-26T17:56:48.730Z,13.26
2022-09-26T17:58:50.443Z,13.30
2022-09-26T18:00:52.348Z,13.34
2022-09-26T18:03:00.489Z,13.43
2022-09-26T18:05:08.275Z,13.48
2022-09-26T18:07:12.348Z,13.45
2022-09-26T18:09:15.425Z,13.51
2022-09-26T18:11:18.749Z,13.61
2022-09-26T18:13:23.180Z,13.70
2022-09-26T18:15:26.823Z,13.75
2022-09-26T18:17:28.426Z,13.69
2022-09-26T18:19:30.098Z,13.65
2022-09-26T18:21:31.978Z,13.71
2022-09-26T18:23:52.225Z,13.66
2022-09-26T18:25:56.867Z,13.66
2022-09-26T18:28:02.403Z,13.65
2022-09-26T18:30:04.843Z,13.73
2022-09-26T18:32:14.209Z,13.67
2022-09-26T18:34:17.166Z,13.57
2022-09-26T18:36:18.921Z,13.59
2022-09-26T18:38:20.677Z,13.56
2022-09-26T18:40:28.450Z,13.42
2022-09-26T18:42:30.330Z,13.20
2022-09-26T18:44:32.578Z,13.20
2022-09-26T18:46:34.447Z,13.26
2022-09-26T18:48:36.215Z,13.14
2022-09-26T18:50:39.670Z,12.87
2022-09-26T18:52:41.533Z,12.71
2022-09-26T18:54:44.703Z,12.90
2022-09-26T18:56:46.394Z,12.92
2022-09-26T18:58:48.538Z,12.87
2022-09-26T19:00:58.880Z,12.71
2022-09-26T19:03:00.612Z,12.42
2022-09-26T19:05:04.113Z,12.45
2022-09-26T19:07:06.864Z,12.33
2022-09-26T19:09:13.261Z,12.53
2022-09-26T19:11:18.427Z,12.53
2022-09-26T19:13:24.022Z,12.54
2022-09-26T19:15:28.497Z,12.54
2022-09-26T19:17:30.271Z,12.54
2022-09-26T19:19:32.033Z,12.56
2022-09-26T19:21:46.221Z,12.62
2022-09-26T19:23:49.523Z,12.63
2022-09-26T19:25:51.342Z,12.62
2022-09-26T19:27:53.209Z,12.60
2022-09-26T19:30:02.579Z,12.65
2022-09-26T19:32:08.512Z,12.68
2022-09-26T19:34:15.323Z,12.60
2022-09-26T19:36:19.258Z,12.56
2022-09-26T19:38:26.686Z,12.50
2022-09-26T19:40:29.116Z,12.46
2022-09-26T19:42:30.979Z,12.47
2022-09-26T19:44:32.674Z,12.46
2022-09-26T19:46:37.198Z,12.39
2022-09-26T19:48:40.650Z,12.39
2022-09-26T19:50:44.681Z,12.30
2022-09-26T19:52:46.800Z,12.27
2022-09-26T19:54:49.223Z,12.21
2022-09-26T19:56:51.015Z,11.87
2022-09-26T19:58:52.773Z,12.15
2022-09-26T20:00:57.452Z,12.08
2022-09-26T20:02:59.355Z,12.09
2022-09-26T20:05:01.295Z,12.00
2022-09-26T20:07:03.126Z,12.02
2022-09-26T20:09:10.886Z,12.02
2022-09-26T20:11:12.595Z,12.01
2022-09-26T20:13:14.545Z,12.04
2022-09-26T20:15:18.091Z,12.03
2022-09-26T20:17:25.891Z,12.09
2022-09-26T20:19:30.702Z,12.02
2022-09-26T20:21:33.118Z,12.01
2022-09-26T20:23:35.698Z,12.03
2022-09-26T20:25:37.441Z,11.97
2022-09-26T20:27:39.120Z,11.98
2022-09-26T20:29:40.873Z,11.95
2022-09-26T20:31:42.698Z,11.88
2022-09-26T20:33:44.423Z,11.90
2022-09-26T20:35:47.175Z,11.83
2022-09-26T20:37:49.262Z,11.82
2022-09-26T20:39:51.481Z,11.81
2022-09-26T20:41:53.493Z,11.66
2022-09-26T20:43:59.102Z,11.68
2022-09-26T20:46:09.729Z,11.69
2022-09-26T20:48:21.131Z,11.73
2022-09-26T20:50:22.982Z,11.69
2022-09-26T20:52:27.486Z,11.65
2022-09-26T20:54:31.663Z,11.62
2022-09-26T20:56:33.391Z,11.61
2022-09-26T20:58:35.325Z,11.61
2022-09-26T21:00:37.133Z,11.60
2022-09-26T21:02:39.631Z,11.52
2022-09-26T21:04:41.540Z,11.47
2022-09-26T21:06:44.452Z,11.41
2022-09-26T21:08:46.658Z,11.49
2022-09-26T21:10:48.509Z,11.42
2022-09-26T21:12:50.615Z,11.37
2022-09-26T21:14:52.382Z,11.39
2022-09-26T21:16:54.660Z,11.30
2022-09-26T21:18:56.481Z,11.41
2022-09-26T21:21:07.234Z,11.40
2022-09-26T21:23:10.277Z,11.32
2022-09-26T21:25:20.127Z,11.28
2022-09-26T21:27:21.856Z,11.21
2022-09-26T21:29:23.856Z,11.18
2022-09-26T21:31:32.044Z,11.25
2022-09-26T21:33:33.788Z,11.20
2022-09-26T21:35:35.559Z,11.16
2022-09-26T21:37:37.311Z,11.25
2022-09-26T21:39:39.329Z,11.28
2022-09-26T21:41:41.191Z,11.31
2022-09-26T21:43:49.098Z,11.31
2022-09-26T21:45:50.890Z,11.26
2022-09-26T21:47:52.681Z,11.19
2022-09-26T21:49:54.440Z,11.21
2022-09-26T21:52:05.839Z,11.18
2022-09-26T21:54:12.913Z,11.17
2022-09-26T21:56:25.779Z,11.14
2022-09-26T21:58:30.918Z,11.11
2022-09-26T22:00:32.930Z,11.07
2022-09-26T22:02:34.750Z,11.09
2022-09-26T22:04:36.781Z,10.99
2022-09-26T22:06:38.581Z,10.64
2022-09-26T22:08:41.182Z,10.88
2022-09-26T22:10:49.966Z,10.83
2022-09-26T22:12:52.303Z,10.84
2022-09-26T22:14:54.028Z,10.84
2022-09-26T22:16:56.227Z,10.75
2022-09-26T22:18:58.518Z,10.77
2022-09-26T22:21:00.221Z,10.70
2022-09-26T22:23:01.967Z,10.81
2022-09-26T22:25:05.517Z,10.79
2022-09-26T22:27:07.182Z,10.83
2022-09-26T22:29:09.094Z,10.83
2022-09-26T22:31:11.683Z,10.86
2022-09-26T22:33:13.511Z,10.88
2022-09-26T22:35:15.351Z,10.77
2022-09-26T22:37:17.292Z,10.80
2022-09-26T22:39:19.240Z,10.73
2022-09-26T22:41:21.328Z,10.72
2022-09-26T22:43:23.270Z,10.71
2022-09-26T22:45:25.008Z,10.75
2022-09-26T22:47:26.900Z,10.70
2022-09-26T22:49:28.810Z,10.67
2022-09-26T22:51:30.506Z,10.75
2022-09-26T22:53:34.210Z,10.57
2022-09-26T22:55:35.841Z,10.49
2022-09-26T22:57:37.628Z,10.45
2022-09-26T22:59:39.463Z,10.42
2022-09-26T23:01:41.217Z,10.35
2022-09-26T23:03:43.155Z,10.15
2022-09-26T23:05:47.463Z,10.29
2022-09-26T23:07:55.473Z,10.20
2022-09-26T23:09:57.639Z,10.24
2022-09-26T23:11:59.391Z,10.32
2022-09-26T23:14:01.119Z,10.38
2022-09-26T23:16:07.711Z,10.37
2022-09-26T23:18:10.302Z,10.35
2022-09-26T23:20:12.019Z,10.41
2022-09-26T23:22:14.044Z,10.53
2022-09-26T23:24:15.902Z,10.53
2022-09-26T23:26:20.794Z,10.50
2022-09-26T23:28:22.534Z,10.57
2022-09-26T23:30:24.483Z,10.62
2022-09-26T23:32:26.260Z,10.61
2022-09-26T23:34:28.013Z,10.59
2022-09-26T23:36:30.092Z,10.55
2022-09-26T23:38:32.051Z,10.46
2022-09-26T23:40:36.132Z,10.44
2022-09-26T23:42:37.856Z,10.40
2022-09-26T23:44:39.651Z,10.38
2022-09-26T23:46:41.558Z,10.39
2022-09-26T23:48:43.651Z,10.46
2022-09-26T23:50:46.436Z,10.49
2022-09-26T23:52:48.501Z,10.52
2022-09-26T23:54:50.257Z,10.55
2022-09-26T23:56:51.928Z,10.62
2022-09-26T23:58:56.288Z,10.66
